Time;durP1;ratioP1;P1;durP2;ratioP2;P2;SDS_P1;SDS_P2;PMS_P1;PMS_P2;Temp;Humidity;BMP_temperature;BMP_pressure;BME280_temperature;BME280_humidity;BME280_pressure;Samples;Min_cycle;Max_cycle;Signal;HPM_P1;HPM_P2
2022/01/06 00:00:12;;;;;;;14.13;3.47;;;;;;;5.45;78.71;101628.09;7392950;19;20015;-67
2022/01/06 00:02:40;;;;;;;12.63;3.17;;;;;;;5.45;78.75;101622.03;7392714;19;20025;-65
2022/01/06 00:05:09;;;;;;;11.02;3.15;;;;;;;5.44;79.70;101620.38;7390152;19;20348;-66
2022/01/06 00:07:36;;;;;;;9.63;4.45;;;;;;;5.39;79.22;101619.84;7391814;19;20428;-66
2022/01/06 00:10:07;;;;;;;12.85;3.30;;;;;;;5.35;78.71;101620.97;7392769;19;20040;-68
2022/01/06 00:12:42;;;;;;;14.15;6.35;;;;;;;5.35;80.03;101619.22;7372694;19;20014;-66
2022/01/06 00:25:09;;;;;;;12.57;5.07;;;;;;;5.26;80.29;101603.31;7390958;19;20464;-66
2022/01/06 00:27:36;;;;;;;12.05;4.20;;;;;;;5.27;79.86;101621.50;7391115;19;20482;-67
2022/01/06 00:30:04;;;;;;;13.27;3.20;;;;;;;5.23;79.55;101621.78;7394094;19;20006;-68
2022/01/06 00:32:32;;;;;;;15.88;4.72;;;;;;;5.24;79.73;101613.84;7395179;19;20031;-67
2022/01/06 00:34:59;;;;;;;14.38;3.13;;;;;;;5.24;79.60;101618.22;7388537;19;20011;-66
2022/01/06 00:37:27;;;;;;;10.93;3.25;;;;;;;5.21;79.34;101621.03;7390311;19;20076;-66
2022/01/06 00:39:54;;;;;;;13.20;3.33;;;;;;;5.18;79.55;101617.69;7392930;19;20011;-69
2022/01/06 00:42:22;;;;;;;13.82;2.95;;;;;;;5.14;79.00;101626.63;7374260;19;20014;-66
2022/01/06 00:44:49;;;;;;;11.98;3.97;;;;;;;5.10;78.99;101617.34;7390672;19;20125;-65
2022/01/06 00:47:20;;;;;;;10.20;2.78;;;;;;;5.07;79.34;101617.56;7389454;19;20010;-66
2022/01/06 00:49:47;;;;;;;14.65;3.70;;;;;;;5.04;80.21;101622.94;7391954;19;20032;-65
2022/01/06 00:52:15;;;;;;;12.13;2.72;;;;;;;5.02;79.48;101617.00;7392887;19;20317;-65
2022/01/06 00:54:42;;;;;;;13.90;5.20;;;;;;;5.00;79.52;101616.25;7391150;19;20638;-65
2022/01/06 00:57:09;;;;;;;14.75;3.90;;;;;;;4.99;79.77;101617.19;7388885;19;20073;-66
2022/01/06 00:59:36;;;;;;;16.25;3.50;;;;;;;4.94;79.50;101611.44;7390443;19;20532;-66
2022/01/06 01:02:04;;;;;;;16.73;3.30;;;;;;;4.95;79.29;101618.31;7392365;19;20019;-66
2022/01/06 01:04:32;;;;;;;11.07;2.90;;;;;;;4.94;79.30;101616.63;7391244;19;20399;-66
2022/01/06 01:06:59;;;;;;;12.50;3.13;;;;;;;4.93;79.61;101614.13;7390435;19;20444;-66
2022/01/06 01:09:27;;;;;;;11.48;2.97;;;;;;;4.92;79.66;101615.91;7388823;19;20057;-66
2022/01/06 01:11:54;;;;;;;13.40;3.42;;;;;;;4.89;79.03;101613.50;7379405;19;20298;-66
2022/01/06 01:14:27;;;;;;;10.20;3.20;;;;;;;4.86;79.02;101621.50;7382318;19;20275;-66
2022/01/06 01:16:58;;;;;;;9.15;3.15;;;;;;;4.85;79.12;101627.66;7387598;19;20748;-67
2022/01/06 01:19:27;;;;;;;12.93;3.30;;;;;;;4.85;79.42;101622.44;7388132;19;20014;-67
2022/01/06 01:21:55;;;;;;;10.95;4.45;;;;;;;4.85;79.79;101625.03;7390281;19;20485;-67
2022/01/06 01:24:23;;;;;;;14.43;2.55;;;;;;;4.84;79.95;101643.38;7390077;19;20047;-66
2022/01/06 01:26:51;;;;;;;16.02;2.65;;;;;;;4.80;79.87;101639.31;7389769;19;20014;-65
2022/01/06 01:29:19;;;;;;;13.82;2.70;;;;;;;4.74;79.33;101641.34;7391829;19;20003;-65
2022/01/06 01:31:50;;;;;;;12.75;3.28;;;;;;;4.72;78.96;101642.41;7389493;19;20011;-67
2022/01/06 01:34:23;;;;;;;11.85;3.05;;;;;;;4.70;79.11;101641.66;7388608;19;20102;-66
2022/01/06 01:36:55;;;;;;;12.70;2.83;;;;;;;4.70;79.45;101647.69;7387675;19;20015;-68
2022/01/06 01:39:23;;;;;;;14.20;3.92;;;;;;;4.69;79.77;101645.19;7387326;19;20027;-65
2022/01/06 01:41:51;;;;;;;16.65;2.65;;;;;;;4.68;79.44;101641.72;7388196;19;20499;-66
2022/01/06 01:44:20;;;;;;;13.23;3.40;;;;;;;4.66;79.42;101642.78;7373150;19;20050;-66
2022/01/06 01:51:50;;;;;;;7.68;2.25;;;;;;;4.61;79.90;101634.41;7390530;19;20032;-66
2022/01/06 01:54:17;;;;;;;8.90;2.65;;;;;;;4.57;79.82;101632.91;7388899;19;20003;-66
2022/01/06 01:56:45;;;;;;;13.52;3.38;;;;;;;4.57;79.95;101636.34;7388407;19;20002;-66
2022/01/06 01:59:13;;;;;;;11.32;3.38;;;;;;;4.57;80.09;101641.53;7390135;19;20042;-66
2022/01/06 02:01:42;;;;;;;9.75;3.30;;;;;;;4.58;80.08;101648.44;7387243;19;20011;-67
2022/01/06 02:04:09;;;;;;;11.15;3.10;;;;;;;4.61;79.76;101647.44;7388386;19;20138;-70
2022/01/06 02:06:36;;;;;;;19.67;6.72;;;;;;;4.63;80.67;101651.59;7388375;19;20003;-67
2022/01/06 02:09:04;;;;;;;14.20;4.22;;;;;;;4.65;81.96;101639.31;7387154;19;20015;-67
2022/01/06 02:11:31;;;;;;;18.30;4.20;;;;;;;4.64;81.36;101635.03;7390551;19;20021;-66
2022/01/06 02:13:59;;;;;;;15.18;3.83;;;;;;;4.62;80.06;101639.50;7375646;19;20085;-65
2022/01/06 02:16:27;;;;;;;12.85;3.03;;;;;;;4.61;79.97;101630.03;7383109;19;20527;-66
2022/01/06 02:18:54;;;;;;;9.02;2.85;;;;;;;4.58;79.76;101614.56;7387965;19;20082;-66
2022/01/06 02:21:22;;;;;;;7.72;2.63;;;;;;;4.53;79.54;101621.84;7388085;19;20089;-66
2022/01/06 02:23:49;;;;;;;9.75;3.08;;;;;;;4.51;79.74;101626.31;7386587;19;20011;-67
2022/01/06 02:26:17;;;;;;;15.65;3.00;;;;;;;4.49;79.75;101622.97;7390163;19;20017;-67
2022/01/06 02:28:44;;;;;;;10.13;2.67;;;;;;;4.49;80.02;101622.13;7388177;19;20020;-66
2022/01/06 02:31:11;;;;;;;8.73;2.78;;;;;;;4.46;79.97;101617.94;7387799;19;20118;-67
2022/01/06 02:33:39;;;;;;;12.40;2.55;;;;;;;4.43;79.32;101615.50;7389765;19;20019;-67
2022/01/06 02:36:06;;;;;;;9.98;2.70;;;;;;;4.38;79.62;101632.34;7383550;19;20663;-67
2022/01/06 02:38:34;;;;;;;10.77;3.95;;;;;;;4.34;80.09;101618.69;7386430;19;20508;-66
2022/01/06 02:41:02;;;;;;;9.65;2.80;;;;;;;4.34;80.52;101605.66;7388590;19;20098;-67
2022/01/06 02:43:30;;;;;;;24.95;5.40;;;;;;;4.33;80.31;101609.19;7387390;19;20032;-66
2022/01/06 02:45:57;;;;;;;14.82;3.15;;;;;;;4.32;80.82;101597.94;7371124;19;20011;-66
2022/01/06 02:48:24;;;;;;;14.98;3.30;;;;;;;4.29;80.38;101599.88;7386235;19;20718;-66
2022/01/06 02:50:52;;;;;;;8.65;2.90;;;;;;;4.27;80.14;101594.75;7395547;19;20071;-66
2022/01/06 02:53:19;;;;;;;14.18;3.25;;;;;;;4.29;80.30;101589.47;7394624;19;20403;-67
2022/01/06 02:55:50;;;;;;;12.90;3.38;;;;;;;4.28;80.82;101588.63;7394071;19;20102;-67
2022/01/06 02:58:37;;;;;;;9.95;2.38;;;;;;;4.27;80.37;101597.38;7398346;19;20006;-66
2022/01/06 03:01:04;;;;;;;9.82;2.42;;;;;;;4.25;80.29;101593.19;7396086;19;20436;-67
2022/01/06 03:03:32;;;;;;;12.75;3.60;;;;;;;4.22;80.23;101599.41;7394960;19;20235;-66
2022/01/06 03:05:59;;;;;;;12.43;3.10;;;;;;;4.22;81.31;101599.41;7393614;19;20151;-66
2022/01/06 03:08:27;;;;;;;6.93;2.40;;;;;;;4.20;80.90;101592.66;7394472;19;20011;-64
2022/01/06 03:10:56;;;;;;;12.27;2.60;;;;;;;4.19;80.63;101606.59;7394705;19;20042;-67
2022/01/06 03:13:23;;;;;;;10.55;2.78;;;;;;;4.19;81.28;101612.63;7394021;19;20039;-66
2022/01/06 03:15:51;;;;;;;12.82;2.72;;;;;;;4.22;80.84;101609.84;7392486;19;20029;-67
2022/01/06 03:18:18;;;;;;;9.15;2.28;;;;;;;4.21;80.37;101604.75;7390854;19;20018;-65
2022/01/06 03:20:45;;;;;;;12.75;2.75;;;;;;;4.19;80.59;101601.38;7393667;19;20078;-66
2022/01/06 03:23:12;;;;;;;10.55;3.20;;;;;;;4.14;80.33;101606.03;7392972;19;20093;-65
2022/01/06 03:25:39;;;;;;;12.13;2.95;;;;;;;4.12;80.42;101608.72;7393081;19;20663;-66
2022/01/06 03:28:06;;;;;;;12.30;3.03;;;;;;;4.10;80.35;101608.00;7394932;19;20011;-67
2022/01/06 03:30:33;;;;;;;12.70;3.10;;;;;;;4.08;80.36;101606.38;7394353;19;20474;-67
2022/01/06 03:33:01;;;;;;;11.93;2.75;;;;;;;4.03;80.01;101600.63;7393925;19;20275;-67
2022/01/06 03:35:28;;;;;;;10.52;2.40;;;;;;;4.03;80.33;101606.66;7388434;19;20654;-67
2022/01/06 03:37:55;;;;;;;10.25;2.05;;;;;;;4.03;80.78;101604.06;7393736;19;20015;-68
2022/01/06 03:40:22;;;;;;;12.90;2.97;;;;;;;4.02;80.65;101598.94;7391653;19;20017;-65
2022/01/06 03:42:50;;;;;;;10.75;2.95;;;;;;;3.99;80.50;101599.97;7392695;19;20086;-66
2022/01/06 03:45:18;;;;;;;17.20;2.75;;;;;;;4.01;80.82;101597.28;7390587;19;20023;-66
2022/01/06 03:47:46;;;;;;;9.27;2.45;;;;;;;3.99;80.54;101610.38;7394646;19;20014;-66
2022/01/06 03:50:15;;;;;;;11.52;2.85;;;;;;;3.98;80.58;101607.88;7393612;19;20014;-65
2022/01/06 03:52:42;;;;;;;9.23;2.53;;;;;;;3.93;80.50;101600.34;7390793;19;20011;-66
2022/01/06 03:55:15;;;;;;;10.98;2.50;;;;;;;3.95;80.59;101598.50;7394841;19;20017;-66
2022/01/06 03:57:43;;;;;;;;;;;;;;;3.94;80.29;101606.38;7387720;19;20014;-66
2022/01/06 04:00:16;;;;;;;12.57;2.95;;;;;;;3.91;80.33;101603.97;7391490;19;20320;-65
2022/01/06 04:02:44;;;;;;;8.75;2.60;;;;;;;3.87;80.72;101606.75;7395007;19;20084;-66
2022/01/06 04:05:13;;;;;;;13.65;2.75;;;;;;;3.84;80.75;101608.69;7390120;19;20727;-66
2022/01/06 04:07:41;;;;;;;13.57;3.35;;;;;;;3.79;80.71;101606.38;7390808;19;20014;-66
2022/01/06 04:10:09;;;;;;;11.45;3.60;;;;;;;3.78;80.65;101607.28;7391751;19;20021;-65
2022/01/06 04:12:37;;;;;;;12.32;2.40;;;;;;;3.78;80.95;101601.25;7392243;19;20437;-67
2022/01/06 04:15:10;;;;;;;17.00;3.40;;;;;;;3.77;80.91;101603.00;7390411;19;20010;-66
2022/01/06 04:17:38;;;;;;;16.27;3.45;;;;;;;3.75;81.10;101604.88;7388474;19;20009;-66
2022/01/06 04:20:07;;;;;;;13.18;3.55;;;;;;;3.74;81.07;101597.16;7389875;19;20017;-67
2022/01/06 04:22:35;;;;;;;11.10;3.28;;;;;;;3.71;81.07;101600.75;7391129;19;20097;-65
2022/01/06 04:25:04;;;;;;;12.93;2.50;;;;;;;3.71;81.52;101611.16;7391240;19;20094;-65
2022/01/06 04:27:31;;;;;;;10.10;2.80;;;;;;;3.72;81.80;101609.41;7392027;19;20133;-65
2022/01/06 04:29:59;;;;;;;14.50;2.85;;;;;;;3.73;81.60;101605.88;7395145;19;20508;-68
2022/01/06 04:32:26;;;;;;;10.05;3.92;;;;;;;3.70;81.57;101609.50;7392394;19;20010;-66
2022/01/06 04:34:53;;;;;;;11.70;3.10;;;;;;;3.74;82.84;101599.75;7392399;19;20673;-66
2022/01/06 04:37:20;;;;;;;14.07;2.88;;;;;;;3.77;81.90;101599.56;7387077;19;20011;-66
2022/01/06 04:39:47;;;;;;;16.27;4.07;;;;;;;3.75;81.76;101591.03;7390863;19;20006;-66
2022/01/06 04:42:14;;;;;;;8.13;2.25;;;;;;;3.77;82.32;101597.78;7390196;19;20090;-65
2022/01/06 04:44:42;;;;;;;9.40;2.63;;;;;;;3.77;81.84;101595.19;7390916;19;20373;-66
2022/01/06 04:47:09;;;;;;;10.93;2.42;;;;;;;3.75;81.45;101602.28;7388334;19;20009;-65
2022/01/06 04:49:36;;;;;;;13.00;2.83;;;;;;;3.75;82.79;101599.66;7388945;19;20617;-66
2022/01/06 04:52:04;;;;;;;5.38;2.25;;;;;;;3.76;83.05;101603.09;7392726;19;20468;-66
2022/01/06 04:54:31;;;;;;;16.48;2.83;;;;;;;3.74;82.28;101597.16;7389170;19;20006;-66
2022/01/06 04:56:58;;;;;;;73.07;7.18;;;;;;;3.72;81.98;101588.59;7393534;19;20395;-66
2022/01/06 04:59:25;;;;;;;11.75;2.25;;;;;;;3.73;82.71;101596.31;7392304;19;20023;-65
2022/01/06 05:01:52;;;;;;;10.55;2.58;;;;;;;3.76;82.30;101590.91;7389741;19;20098;-66
2022/01/06 05:04:20;;;;;;;7.30;2.08;;;;;;;3.75;81.72;101589.25;7390029;19;20025;-67
2022/01/06 05:06:47;;;;;;;8.38;2.45;;;;;;;3.76;82.52;101588.31;7390495;19;20014;-67
2022/01/06 05:09:15;;;;;;;9.32;2.80;;;;;;;3.74;82.53;101589.34;7388262;19;20515;-65
2022/01/06 05:11:42;;;;;;;8.43;2.42;;;;;;;3.72;81.84;101588.59;7388733;19;20146;-66
2022/01/06 05:14:09;;;;;;;11.27;2.40;;;;;;;3.67;81.95;101594.06;7392610;19;20017;-67
2022/01/06 05:16:36;;;;;;;11.15;2.58;;;;;;;3.65;81.78;101592.50;7388544;19;20113;-67
2022/01/06 05:19:04;;;;;;;70.78;5.30;;;;;;;3.65;81.90;101584.69;7390248;19;20025;-65
2022/01/06 05:21:32;;;;;;;8.07;2.42;;;;;;;3.64;82.82;101586.44;7390139;19;20033;-68
2022/01/06 05:24:00;;;;;;;97.85;6.07;;;;;;;3.62;82.00;101587.44;7391566;19;20434;-65
2022/01/06 05:26:28;;;;;;;55.20;5.40;;;;;;;3.64;84.56;101593.41;7387765;19;20021;-66
2022/01/06 05:28:55;;;;;;;52.97;6.75;;;;;;;3.59;84.45;101579.84;7392129;19;20017;-65
2022/01/06 05:31:22;;;;;;;13.90;2.92;;;;;;;3.55;84.71;101584.38;7390048;19;20408;-65
2022/01/06 05:33:49;;;;;;;11.40;2.85;;;;;;;3.51;83.76;101582.88;7388386;19;20006;-66
2022/01/06 05:36:16;;;;;;;9.85;2.90;;;;;;;3.55;84.10;101575.75;7385205;19;20134;-66
2022/01/06 05:38:43;;;;;;;138.55;12.48;;;;;;;3.52;83.31;101576.75;7387452;19;20013;-65
2022/01/06 05:41:10;;;;;;;29.90;8.35;;;;;;;3.53;84.08;101561.97;7389426;19;20492;-65
2022/01/06 05:43:37;;;;;;;4.88;1.95;;;;;;;3.50;83.89;101565.59;7388868;19;20021;-66
2022/01/06 05:46:05;;;;;;;10.00;2.00;;;;;;;3.42;83.39;101566.03;7388909;19;20011;-66
2022/01/06 05:48:32;;;;;;;10.43;2.30;;;;;;;3.41;83.10;101566.13;7389261;19;20018;-66
2022/01/06 05:50:59;;;;;;;10.30;2.30;;;;;;;3.42;83.14;101563.44;7387010;19;20101;-66
2022/01/06 05:53:28;;;;;;;12.15;2.65;;;;;;;3.44;83.80;101568.56;7386959;19;20394;-66
2022/01/06 05:59:32;;;;;;;9.85;2.20;;;;;;;3.48;83.78;101558.81;7388334;19;20010;-65
2022/01/06 06:02:01;;;;;;;8.82;2.50;;;;;;;3.45;83.38;101565.03;7386196;19;20348;-65
2022/01/06 06:04:28;;;;;;;11.50;1.77;;;;;;;3.49;82.74;101568.28;7386283;19;20076;-66
2022/01/06 06:06:55;;;;;;;6.82;1.70;;;;;;;3.50;83.65;101570.81;7386753;19;20010;-67
2022/01/06 06:09:22;;;;;;;8.38;1.95;;;;;;;3.50;83.79;101565.59;7389492;19;20027;-65
2022/01/06 06:11:49;;;;;;;9.20;2.92;;;;;;;3.47;83.24;101576.16;7387659;19;20062;-66
2022/01/06 06:14:16;;;;;;;11.20;1.77;;;;;;;3.45;82.72;101565.84;7387935;19;20019;-65
2022/01/06 06:16:43;;;;;;;11.15;2.38;;;;;;;3.43;82.79;101562.53;7390931;19;20020;-65
2022/01/06 06:19:11;;;;;;;13.50;2.58;;;;;;;3.42;82.62;101578.19;7390885;19;20523;-66
2022/01/06 06:21:38;;;;;;;9.75;2.13;;;;;;;3.40;82.64;101564.47;7390522;19;20011;-65
2022/01/06 06:24:06;;;;;;;8.98;1.80;;;;;;;3.36;82.67;101553.38;7389732;19;20436;-65
2022/01/06 06:26:33;;;;;;;9.40;2.08;;;;;;;3.36;83.18;101560.34;7396909;19;20010;-66
2022/01/06 06:29:01;;;;;;;9.85;2.20;;;;;;;3.34;83.37;101563.06;7393656;19;20018;-66
2022/01/06 06:31:28;;;;;;;7.43;1.88;;;;;;;3.31;82.58;101580.56;7396196;19;20013;-66
2022/01/06 06:33:55;;;;;;;10.10;1.85;;;;;;;3.33;82.70;101569.19;7392858;19;20015;-66
2022/01/06 06:36:22;;;;;;;9.38;2.55;;;;;;;3.36;82.56;101570.75;7393448;19;20015;-65
2022/01/06 06:38:49;;;;;;;11.65;1.70;;;;;;;3.39;82.39;101571.44;7396528;19;20006;-66
2022/01/06 06:41:16;;;;;;;8.10;1.70;;;;;;;3.41;82.85;101571.31;7395865;19;20066;-68
2022/01/06 06:43:43;;;;;;;9.20;1.52;;;;;;;3.42;82.55;101560.00;7396663;19;20025;-65
2022/01/06 06:46:10;;;;;;;14.60;1.95;;;;;;;3.46;82.78;101556.28;7391571;19;20010;-65
2022/01/06 06:48:38;;;;;;;12.27;1.77;;;;;;;3.52;82.58;101568.09;7393803;19;20351;-66
2022/01/06 06:51:05;;;;;;;8.95;2.47;;;;;;;3.53;82.41;101551.56;7395214;19;20015;-66
2022/01/06 06:53:32;;;;;;;8.90;1.75;;;;;;;3.51;82.49;101550.81;7394620;19;20015;-65
2022/01/06 06:56:00;;;;;;;10.32;1.95;;;;;;;3.54;82.48;101548.06;7396060;19;20086;-66
2022/01/06 06:58:27;;;;;;;12.18;1.88;;;;;;;3.56;82.54;101544.41;7393576;19;20105;-66
2022/01/06 07:00:54;;;;;;;9.77;1.83;;;;;;;3.57;82.75;101535.69;7392119;19;20066;-67
2022/01/06 07:03:22;;;;;;;9.55;2.20;;;;;;;3.57;82.27;101527.06;7393843;19;20028;-66
2022/01/06 07:05:49;;;;;;;13.32;1.88;;;;;;;3.58;82.11;101541.75;7394386;19;20340;-67
2022/01/06 07:08:18;;;;;;;11.30;2.10;;;;;;;3.60;82.28;101539.91;7391507;19;20503;-66
2022/01/06 07:10:46;;;;;;;9.15;1.73;;;;;;;3.58;82.06;101539.97;7397010;19;20082;-65
2022/01/06 07:13:16;;;;;;;9.23;2.20;;;;;;;3.55;81.97;101544.53;7394221;19;20011;-66
2022/01/06 07:15:44;;;;;;;59.95;7.35;;;;;;;3.53;82.42;101554.16;7391433;19;20014;-66
2022/01/06 07:18:12;;;;;;;39.53;7.57;;;;;;;3.57;84.52;101556.50;7389477;19;20011;-66
2022/01/06 07:20:41;;;;;;;12.90;2.35;;;;;;;3.60;83.90;101558.09;7392602;19;20006;-65
2022/01/06 07:23:08;;;;;;;8.68;2.08;;;;;;;3.57;83.43;101559.09;7391625;19;20031;-66
2022/01/06 07:25:35;;;;;;;5.53;1.45;;;;;;;3.58;83.19;101562.53;7391135;19;20034;-66
2022/01/06 07:28:04;;;;;;;12.65;2.72;;;;;;;3.58;82.96;101563.38;7395364;19;20025;-66
2022/01/06 07:30:33;;;;;;;8.75;2.05;;;;;;;3.60;82.83;101571.94;7391673;19;20082;-66
2022/01/06 07:33:01;;;;;;;12.98;2.95;;;;;;;3.60;82.35;101581.50;7391933;19;20565;-67
2022/01/06 07:35:28;;;;;;;12.60;2.50;;;;;;;3.64;82.98;101577.81;7391128;19;20092;-67
2022/01/06 07:37:55;;;;;;;22.35;6.40;;;;;;;3.65;83.81;101562.13;7389494;19;20018;-67
2022/01/06 07:40:23;;;;;;;14.23;2.28;;;;;;;3.69;84.06;101574.00;7389402;19;20013;-67
2022/01/06 07:42:50;;;;;;;20.95;5.05;;;;;;;3.70;83.55;101577.44;7390380;19;20062;-66
2022/01/06 07:45:19;;;;;;;13.88;2.47;;;;;;;3.69;83.54;101574.00;7390855;19;20078;-66
2022/01/06 07:50:17;;;;;;;10.13;2.30;;;;;;;3.69;82.19;101588.78;7393214;19;20021;-66
2022/01/06 07:52:44;;;;;;;6.43;2.38;;;;;;;3.68;82.43;101580.13;7396072;19;20098;-65
2022/01/06 07:55:11;;;;;;;10.25;2.30;;;;;;;3.72;83.08;101588.59;7394959;19;20018;-66
2022/01/06 07:57:38;;;;;;;7.50;1.98;;;;;;;3.69;82.31;101586.19;7389728;19;20030;-67
2022/01/06 08:00:07;;;;;;;9.80;1.88;;;;;;;3.65;81.45;101590.72;7393831;19;20010;-68
2022/01/06 08:02:34;;;;;;;15.32;1.92;;;;;;;3.62;81.20;101588.28;7393181;19;20017;-66
2022/01/06 08:05:01;;;;;;;9.07;2.15;;;;;;;3.63;82.60;101595.19;7389349;19;20007;-67
2022/01/06 08:07:28;;;;;;;11.50;2.38;;;;;;;3.65;82.49;101589.88;7394420;19;20038;-66
2022/01/06 08:09:56;;;;;;;10.50;2.45;;;;;;;3.65;81.77;101588.13;7390657;19;20368;-66
2022/01/06 08:12:23;;;;;;;10.38;2.20;;;;;;;3.62;81.55;101590.88;7390942;19;20063;-67
2022/01/06 08:14:50;;;;;;;13.65;2.13;;;;;;;3.77;88.09;101592.59;7394235;19;20098;-67
2022/01/06 08:17:18;;;;;;;564.47;29.08;;;;;;;3.91;90.52;101593.56;7389812;19;20010;-65
2022/01/06 08:19:47;;;;;;;10.35;2.45;;;;;;;3.87;89.31;101595.50;7394021;19;20019;-66
2022/01/06 08:22:14;;;;;;;13.02;2.20;;;;;;;3.80;86.81;101589.00;7395650;19;20014;-67
2022/01/06 08:24:41;;;;;;;10.13;2.45;;;;;;;3.72;85.06;101594.63;7390948;19;20018;-65
2022/01/06 08:27:08;;;;;;;13.90;2.03;;;;;;;3.69;83.38;101596.59;7390648;19;20010;-66
2022/01/06 08:29:37;;;;;;;11.90;1.75;;;;;;;3.61;83.11;101596.19;7390921;19;20709;-66
2022/01/06 08:32:05;;;;;;;12.43;1.63;;;;;;;3.58;82.79;101591.16;7392405;19;20034;-66
2022/01/06 08:34:34;;;;;;;9.35;1.58;;;;;;;3.57;83.07;101582.50;7389390;19;20023;-67
2022/01/06 08:37:05;;;;;;;19.17;4.72;;;;;;;3.58;83.07;101581.59;7389858;19;20026;-67
2022/01/06 08:39:33;;;;;;;9.63;2.58;;;;;;;3.60;83.08;101573.72;7392266;19;20568;-66
2022/01/06 08:42:03;;;;;;;10.93;1.92;;;;;;;3.61;83.32;101578.81;7389518;19;20433;-65
2022/01/06 08:44:31;;;;;;;292.75;17.67;;;;;;;3.68;84.68;101574.09;7391266;19;20024;-65
2022/01/06 08:47:01;;;;;;;8.25;2.45;;;;;;;3.74;85.92;101576.34;7386165;19;20467;-65
2022/01/06 08:49:29;;;;;;;7.55;2.42;;;;;;;3.72;84.92;101570.38;7390615;19;20352;-65
2022/01/06 08:51:56;;;;;;;12.82;3.05;;;;;;;3.67;83.68;101564.59;7390337;19;20188;-65
2022/01/06 08:54:23;;;;;;;9.55;2.00;;;;;;;3.68;83.58;101567.13;7390545;19;20082;-66
2022/01/06 08:56:52;;;;;;;10.70;3.25;;;;;;;3.72;84.15;101563.41;7393166;19;20357;-67
2022/01/06 08:59:19;;;;;;;23.60;4.63;;;;;;;3.80;85.20;101556.00;7390960;19;20501;-67
2022/01/06 09:01:46;;;;;;;10.20;2.70;;;;;;;3.80;85.18;101552.56;7388998;19;20035;-66
2022/01/06 09:04:13;;;;;;;53.67;6.28;;;;;;;3.82;85.22;101551.53;7370067;19;20031;-65
2022/01/06 09:06:41;;;;;;;95.32;8.40;;;;;;;3.80;84.65;101558.59;7388918;19;20014;-67
2022/01/06 09:09:08;;;;;;;79.93;8.43;;;;;;;3.85;86.12;101559.16;7389639;19;20010;-66
2022/01/06 09:11:35;;;;;;;57.60;9.70;;;;;;;3.88;86.53;101548.56;7386989;19;20019;-66
2022/01/06 09:14:02;;;;;;;8.55;2.58;;;;;;;3.87;85.46;101536.47;7388323;19;20086;-66
2022/01/06 09:16:29;;;;;;;9.85;2.03;;;;;;;3.85;84.28;101534.91;7389455;19;20070;-67
2022/01/06 09:18:57;;;;;;;11.40;2.17;;;;;;;3.82;83.17;101533.31;7386783;19;20475;-66
2022/01/06 09:21:24;;;;;;;10.38;1.75;;;;;;;3.84;82.36;101533.22;7391084;19;20007;-66
2022/01/06 09:23:52;;;;;;;10.13;2.25;;;;;;;3.84;81.88;101536.66;7387723;19;20028;-69
2022/01/06 09:26:19;;;;;;;9.90;2.20;;;;;;;3.86;81.19;101523.53;7388367;19;20019;-66
2022/01/06 09:28:46;;;;;;;8.18;2.03;;;;;;;3.90;81.51;101521.59;7388827;19;20485;-65
2022/01/06 09:31:13;;;;;;;10.18;1.95;;;;;;;3.97;81.95;101525.50;7387098;19;20010;-66
2022/01/06 09:33:41;;;;;;;7.82;1.95;;;;;;;4.03;81.29;101527.72;7391049;19;20015;-65
2022/01/06 09:36:08;;;;;;;14.30;5.18;;;;;;;4.13;82.98;101518.44;7389535;19;20429;-66
2022/01/06 09:38:36;;;;;;;13.90;2.10;;;;;;;4.20;83.51;101514.53;7391130;19;20078;-67
2022/01/06 09:41:05;;;;;;;7.95;1.90;;;;;;;4.19;81.83;101507.63;7387925;19;20178;-68
2022/01/06 09:43:34;;;;;;;8.73;1.90;;;;;;;4.21;81.21;101503.19;7391327;19;20018;-67
2022/01/06 09:46:04;;;;;;;7.72;1.60;;;;;;;4.26;80.46;101499.38;7388468;19;20094;-67
2022/01/06 09:48:33;;;;;;;12.40;3.15;;;;;;;4.32;80.71;101487.69;7388548;19;20007;-66
2022/01/06 09:51:01;;;;;;;7.47;1.73;;;;;;;4.34;79.87;101478.03;7392178;19;20115;-68
2022/01/06 09:53:28;;;;;;;8.77;1.92;;;;;;;4.34;79.18;101461.56;7387071;19;20070;-66
2022/01/06 09:55:56;;;;;;;10.20;2.00;;;;;;;4.41;79.23;101473.28;7388392;19;20082;-67
2022/01/06 09:58:26;;;;;;;5.43;1.48;;;;;;;4.45;78.63;101461.72;7389943;19;20153;-66
2022/01/06 10:00:55;;;;;;;9.25;3.33;;;;;;;4.51;78.47;101466.56;7397201;19;20007;-67
2022/01/06 10:03:29;;;;;;;7.85;2.55;;;;;;;4.54;78.73;101471.56;7393738;19;20042;-67
2022/01/06 10:06:09;;;;;;;12.73;1.98;;;;;;;4.61;77.45;101478.06;7394615;19;20063;-66
2022/01/06 10:08:37;;;;;;;6.63;1.95;;;;;;;4.69;77.90;101473.19;7396372;19;20021;-66
2022/01/06 10:11:08;;;;;;;6.03;1.25;;;;;;;4.74;77.29;101476.31;7400182;19;20033;-66
2022/01/06 10:13:36;;;;;;;10.85;1.95;;;;;;;4.80;77.52;101473.31;7396555;19;20414;-66
2022/01/06 10:16:10;;;;;;;9.68;1.73;;;;;;;4.81;76.65;101472.38;7397383;19;20082;-67
2022/01/06 10:18:37;;;;;;;17.80;7.10;;;;;;;4.93;77.56;101468.13;7394992;19;20014;-67
2022/01/06 10:21:14;;;;;;;8.07;1.98;;;;;;;5.00;77.60;101466.81;7396336;19;20010;-67
2022/01/06 10:23:41;;;;;;;11.88;3.08;;;;;;;5.03;76.44;101474.41;7397909;19;20019;-66
2022/01/06 10:26:13;;;;;;;9.02;1.75;;;;;;;5.06;76.65;101459.41;7395383;19;20011;-71
2022/01/06 10:28:40;;;;;;;14.18;2.13;;;;;;;5.14;76.44;101458.88;7395571;19;20015;-65
2022/01/06 10:31:07;;;;;;;11.23;2.35;;;;;;;5.20;77.07;101465.47;7396211;19;20090;-66
2022/01/06 10:33:39;;;;;;;8.80;1.90;;;;;;;5.25;76.75;101459.00;7396589;19;20006;-66
2022/01/06 10:36:08;;;;;;;9.40;2.63;;;;;;;5.31;75.80;101449.94;7391080;19;20077;-67
2022/01/06 10:38:37;;;;;;;16.35;3.78;;;;;;;5.37;76.39;101439.94;7394270;19;20140;-67
2022/01/06 10:41:10;;;;;;;12.05;3.25;;;;;;;5.43;76.77;101428.25;7396010;19;20074;-66
2022/01/06 10:43:37;;;;;;;6.50;1.40;;;;;;;5.48;75.88;101432.22;7394681;19;20010;-66
2022/01/06 10:46:05;;;;;;;8.73;2.17;;;;;;;5.53;75.29;101427.50;7396468;19;20023;-68
2022/01/06 10:48:32;;;;;;;8.02;1.10;;;;;;;5.58;74.47;101428.03;7395610;19;20032;-66
2022/01/06 10:51:01;;;;;;;11.70;2.00;;;;;;;5.59;73.12;101421.00;7398166;19;20014;-66
2022/01/06 10:53:29;;;;;;;16.17;3.42;;;;;;;5.67;73.68;101416.13;7398625;19;20014;-68
2022/01/06 10:55:56;;;;;;;10.40;1.42;;;;;;;5.73;73.26;101407.84;7397620;19;20333;-66
2022/01/06 10:58:25;;;;;;;12.10;2.47;;;;;;;5.78;72.41;101408.38;7394490;19;20070;-66
2022/01/06 11:00:57;;;;;;;6.25;2.00;;;;;;;5.86;73.38;101405.22;7396608;19;20015;-67
2022/01/06 11:03:29;;;;;;;11.15;1.50;;;;;;;5.89;72.18;101398.00;7395556;19;20011;-66
2022/01/06 11:05:58;;;;;;;7.38;1.27;;;;;;;5.96;72.12;101383.59;7391032;19;20011;-67
2022/01/06 11:08:30;;;;;;;6.82;1.52;;;;;;;6.04;71.71;101390.06;7395319;19;20018;-66
2022/01/06 11:13:41;;;;;;;4.60;1.20;;;;;;;6.15;70.94;101379.66;7395667;19;20009;-66
2022/01/06 11:16:12;;;;;;;14.30;1.63;;;;;;;6.19;70.90;101370.66;7392819;19;20023;-67
2022/01/06 11:18:43;;;;;;;7.55;2.03;;;;;;;6.22;71.16;101355.59;7394373;19;20027;-67
2022/01/06 11:21:15;;;;;;;8.95;1.17;;;;;;;6.26;70.57;101349.19;7394093;19;20042;-67
2022/01/06 11:23:46;;;;;;;5.75;0.93;;;;;;;6.33;70.11;101344.38;7391298;19;20070;-66
2022/01/06 11:26:17;;;;;;;;;;;;;;;6.40;70.28;101337.72;7396771;19;20003;-66
2022/01/06 11:28:55;;;;;;;11.15;1.20;;;;;;;6.45;70.56;101339.03;7394752;19;19925;-66
2022/01/06 11:31:25;;;;;;;8.48;1.27;;;;;;;6.48;69.75;101329.31;7393536;19;20023;-66
2022/01/06 11:33:56;;;;;;;8.25;1.42;;;;;;;6.54;71.47;101326.25;7393916;19;20011;-66
2022/01/06 11:36:27;;;;;;;14.65;1.33;;;;;;;6.59;70.03;101326.75;7392835;19;20038;-67
2022/01/06 11:38:54;;;;;;;9.68;1.27;;;;;;;6.62;69.45;101324.72;7390799;19;20019;-68
2022/01/06 11:41:30;;;;;;;9.38;1.17;;;;;;;6.64;69.21;101317.63;7394067;19;20463;-67
2022/01/06 11:43:58;;;;;;;8.07;1.02;;;;;;;6.69;70.75;101307.66;7393240;19;20461;-66
2022/01/06 11:46:25;;;;;;;6.50;0.80;;;;;;;6.72;70.12;101309.19;7394805;19;20015;-67
2022/01/06 11:48:57;;;;;;;7.15;0.75;;;;;;;6.71;68.37;101300.50;7392906;19;20435;-67
2022/01/06 11:51:26;;;;;;;14.85;1.90;;;;;;;6.70;67.86;101296.25;7394658;19;20082;-67
2022/01/06 11:53:54;;;;;;;7.38;1.40;;;;;;;6.76;68.81;101290.53;7393770;19;20018;-67
2022/01/06 11:56:23;;;;;;;13.25;1.30;;;;;;;6.76;67.72;101295.75;7390895;19;20035;-67